sensor_id;sensor_type;location;lat;lon;timestamp;pressure;altitude;pressure_sealevel;temperature;humidity
79639;BME280;69114;49.108;8.280;2023-04-25T00:00:28;99912.50;;;6.60;83.90
79639;BME280;69114;49.108;8.280;2023-04-25T00:02:53;99919.97;;;6.59;83.58
79639;BME280;69114;49.108;8.280;2023-04-25T00:05:21;99914.91;;;6.66;83.14
79639;BME280;69114;49.108;8.280;2023-04-25T00:07:48;99915.47;;;6.63;83.65
79639;BME280;69114;49.108;8.280;2023-04-25T00:10:13;99913.31;;;6.60;83.20
79639;BME280;69114;49.108;8.280;2023-04-25T00:12:39;99916.03;;;6.65;83.29
79639;BME280;69114;49.108;8.280;2023-04-25T00:15:05;99920.69;;;6.70;84.09
79639;BME280;69114;49.108;8.280;2023-04-25T00:17:31;99913.06;;;6.81;82.06
79639;BME280;69114;49.108;8.280;2023-04-25T00:19:56;99913.56;;;6.83;82.37
79639;BME280;69114;49.108;8.280;2023-04-25T00:22:23;99913.94;;;6.76;81.87
79639;BME280;69114;49.108;8.280;2023-04-25T00:24:49;99920.88;;;6.74;83.14
79639;BME280;69114;49.108;8.280;2023-04-25T00:27:14;99914.91;;;6.66;83.43
79639;BME280;69114;49.108;8.280;2023-04-25T00:29:40;99913.84;;;6.62;83.21
79639;BME280;69114;49.108;8.280;2023-04-25T00:32:05;99911.16;;;6.57;83.56
79639;BME280;69114;49.108;8.280;2023-04-25T00:34:30;99907.50;;;6.62;85.23
79639;BME280;69114;49.108;8.280;2023-04-25T00:36:56;99912.53;;;6.55;85.30
79639;BME280;69114;49.108;8.280;2023-04-25T00:39:22;99903.84;;;6.43;84.69
79639;BME280;69114;49.108;8.280;2023-04-25T00:41:47;99909.72;;;6.36;85.58
79639;BME280;69114;49.108;8.280;2023-04-25T00:44:14;99897.91;;;6.30;85.19
79639;BME280;69114;49.108;8.280;2023-04-25T00:46:42;99898.28;;;6.24;85.14
79639;BME280;69114;49.108;8.280;2023-04-25T00:49:07;99894.31;;;6.30;86.27
79639;BME280;69114;49.108;8.280;2023-04-25T00:51:33;99897.84;;;6.35;86.45
79639;BME280;69114;49.108;8.280;2023-04-25T00:53:59;99894.06;;;6.26;87.24
79639;BME280;69114;49.108;8.280;2023-04-25T00:56:25;99890.78;;;6.24;85.33
79639;BME280;69114;49.108;8.280;2023-04-25T00:58:53;99896.19;;;6.10;85.94
79639;BME280;69114;49.108;8.280;2023-04-25T01:01:19;99890.22;;;6.03;86.00
79639;BME280;69114;49.108;8.280;2023-04-25T01:03:46;99892.19;;;5.98;86.64
79639;BME280;69114;49.108;8.280;2023-04-25T01:06:12;99897.19;;;5.96;86.50
79639;BME280;69114;49.108;8.280;2023-04-25T01:08:39;99884.19;;;5.96;86.33
79639;BME280;69114;49.108;8.280;2023-04-25T01:11:05;99890.88;;;5.90;86.58
79639;BME280;69114;49.108;8.280;2023-04-25T01:13:31;99898.03;;;5.91;86.87
79639;BME280;69114;49.108;8.280;2023-04-25T01:15:58;99899.16;;;5.90;87.03
79639;BME280;69114;49.108;8.280;2023-04-25T01:18:23;99891.41;;;5.92;86.84
79639;BME280;69114;49.108;8.280;2023-04-25T01:20:51;99893.06;;;5.88;86.41
79639;BME280;69114;49.108;8.280;2023-04-25T01:23:17;99904.13;;;5.88;86.92
79639;BME280;69114;49.108;8.280;2023-04-25T01:25:43;99903.66;;;5.81;86.62
79639;BME280;69114;49.108;8.280;2023-04-25T01:28:08;99900.09;;;5.80;87.27
79639;BME280;69114;49.108;8.280;2023-04-25T01:30:34;99894.56;;;5.80;86.38
79639;BME280;69114;49.108;8.280;2023-04-25T01:33:00;99899.78;;;5.82;86.81
79639;BME280;69114;49.108;8.280;2023-04-25T01:35:25;99901.91;;;5.90;87.45
79639;BME280;69114;49.108;8.280;2023-04-25T01:37:51;99891.13;;;5.88;87.07
79639;BME280;69114;49.108;8.280;2023-04-25T01:40:17;99895.28;;;5.91;86.36
79639;BME280;69114;49.108;8.280;2023-04-25T01:42:44;99895.81;;;5.93;86.43
79639;BME280;69114;49.108;8.280;2023-04-25T01:45:11;99895.28;;;5.91;85.93
79639;BME280;69114;49.108;8.280;2023-04-25T01:47:37;99893.34;;;5.92;86.15
79639;BME280;69114;49.108;8.280;2023-04-25T01:50:05;99903.56;;;5.91;85.98
79639;BME280;69114;49.108;8.280;2023-04-25T01:52:31;99900.56;;;5.87;86.48
79639;BME280;69114;49.108;8.280;2023-04-25T01:54:57;99901.66;;;5.86;86.11
79639;BME280;69114;49.108;8.280;2023-04-25T01:57:24;99906.63;;;5.89;86.76
79639;BME280;69114;49.108;8.280;2023-04-25T01:59:50;99900.53;;;5.93;86.71
79639;BME280;69114;49.108;8.280;2023-04-25T02:02:16;99904.97;;;5.94;85.90
79639;BME280;69114;49.108;8.280;2023-04-25T02:04:41;99901.34;;;5.93;86.47
79639;BME280;69114;49.108;8.280;2023-04-25T02:07:06;99902.41;;;5.97;84.79
79639;BME280;69114;49.108;8.280;2023-04-25T02:09:32;99896.66;;;5.94;86.26
79639;BME280;69114;49.108;8.280;2023-04-25T02:11:57;99893.06;;;5.88;85.50
79639;BME280;69114;49.108;8.280;2023-04-25T02:14:23;99891.97;;;5.89;86.08
79639;BME280;69114;49.108;8.280;2023-04-25T02:16:48;99890.03;;;5.89;86.72
79639;BME280;69114;49.108;8.280;2023-04-25T02:19:14;99897.50;;;5.89;86.56
79639;BME280;69114;49.108;8.280;2023-04-25T02:21:39;99886.72;;;5.87;86.61
79639;BME280;69114;49.108;8.280;2023-04-25T02:24:05;99891.44;;;5.87;87.08
79639;BME280;69114;49.108;8.280;2023-04-25T02:26:31;99886.97;;;5.91;87.29
79639;BME280;69114;49.108;8.280;2023-04-25T02:28:56;99886.97;;;5.91;87.32
79639;BME280;69114;49.108;8.280;2023-04-25T02:31:22;99884.50;;;5.89;87.06
79639;BME280;69114;49.108;8.280;2023-04-25T02:33:47;99876.47;;;5.93;87.11
79639;BME280;69114;49.108;8.280;2023-04-25T02:36:13;99877.59;;;5.92;87.21
79639;BME280;69114;49.108;8.280;2023-04-25T02:38:38;99882.53;;;5.95;88.09
79639;BME280;69114;49.108;8.280;2023-04-25T02:41:04;99875.06;;;5.96;87.25
79639;BME280;69114;49.108;8.280;2023-04-25T02:43:29;99874.28;;;5.90;87.78
79639;BME280;69114;49.108;8.280;2023-04-25T02:45:55;99878.13;;;5.94;87.54
79639;BME280;69114;49.108;8.280;2023-04-25T02:48:20;99886.97;;;5.91;86.87
79639;BME280;69114;49.108;8.280;2023-04-25T02:50:45;99873.72;;;5.88;87.77
79639;BME280;69114;49.108;8.280;2023-04-25T02:53:11;99875.69;;;5.87;87.15
79639;BME280;69114;49.108;8.280;2023-04-25T02:55:36;99865.50;;;5.83;87.26
79639;BME280;69114;49.108;8.280;2023-04-25T02:58:01;99872.97;;;5.82;87.86
79639;BME280;69114;49.108;8.280;2023-04-25T03:00:27;99873.78;;;5.83;87.38
79639;BME280;69114;49.108;8.280;2023-04-25T03:02:52;99879.81;;;5.90;86.53
79639;BME280;69114;49.108;8.280;2023-04-25T03:05:17;99877.59;;;5.92;85.93
79639;BME280;69114;49.108;8.280;2023-04-25T03:07:43;99876.59;;;6.07;85.31
79639;BME280;69114;49.108;8.280;2023-04-25T03:10:10;99873.25;;;6.10;85.26
79639;BME280;69114;49.108;8.280;2023-04-25T03:12:35;99867.16;;;6.13;84.83
79639;BME280;69114;49.108;8.280;2023-04-25T03:15:01;99871.75;;;6.23;84.84
79639;BME280;69114;49.108;8.280;2023-04-25T03:17:27;99864.53;;;6.22;84.85
79639;BME280;69114;49.108;8.280;2023-04-25T03:19:52;99868.97;;;6.23;84.21
79639;BME280;69114;49.108;8.280;2023-04-25T03:22:17;99864.19;;;6.28;84.33
79639;BME280;69114;49.108;8.280;2023-04-25T03:24:43;99865.84;;;6.29;84.55
79639;BME280;69114;49.108;8.280;2023-04-25T03:27:09;99855.59;;;6.30;84.54
79639;BME280;69114;49.108;8.280;2023-04-25T03:29:34;99865.31;;;6.27;84.26
79639;BME280;69114;49.108;8.280;2023-04-25T03:31:59;99864.53;;;6.22;85.25
79639;BME280;69114;49.108;8.280;2023-04-25T03:34:24;99853.53;;;6.16;85.10
79639;BME280;69114;49.108;8.280;2023-04-25T03:36:51;99860.44;;;6.19;85.56
79639;BME280;69114;49.108;8.280;2023-04-25T03:39:16;99852.06;;;6.24;85.02
79639;BME280;69114;49.108;8.280;2023-04-25T03:41:41;99851.25;;;6.24;83.96
79639;BME280;69114;49.108;8.280;2023-04-25T03:44:07;99844.91;;;6.23;84.72
79639;BME280;69114;49.108;8.280;2023-04-25T03:46:32;99852.06;;;6.24;84.99
79639;BME280;69114;49.108;8.280;2023-04-25T03:48:57;99844.66;;;6.20;85.35
79639;BME280;69114;49.108;8.280;2023-04-25T03:51:24;99853.78;;;6.20;84.85
79639;BME280;69114;49.108;8.280;2023-04-25T03:53:50;99850.19;;;6.20;84.90
79639;BME280;69114;49.108;8.280;2023-04-25T03:56:16;99855.16;;;6.23;85.40
79639;BME280;69114;49.108;8.280;2023-04-25T03:58:41;99852.38;;;6.23;85.27
79639;BME280;69114;49.108;8.280;2023-04-25T04:01:06;99859.00;;;6.22;84.67
79639;BME280;69114;49.108;8.280;2023-04-25T04:03:36;99856.47;;;6.25;84.62
79639;BME280;69114;49.108;8.280;2023-04-25T04:06:03;99856.72;;;6.29;84.55
79639;BME280;69114;49.108;8.280;2023-04-25T04:08:29;99865.03;;;6.29;84.28
79639;BME280;69114;49.108;8.280;2023-04-25T04:10:55;99865.53;;;6.31;84.50
79639;BME280;69114;49.108;8.280;2023-04-25T04:13:20;99859.94;;;6.36;84.20
79639;BME280;69114;49.108;8.280;2023-04-25T04:15:46;99856.34;;;6.35;84.71
79639;BME280;69114;49.108;8.280;2023-04-25T04:18:11;99859.34;;;6.39;84.36
79639;BME280;69114;49.108;8.280;2023-04-25T04:20:36;99855.25;;;6.36;84.21
79639;BME280;69114;49.108;8.280;2023-04-25T04:23:02;99855.78;;;6.38;84.25
79639;BME280;69114;49.108;8.280;2023-04-25T04:25:27;99853.25;;;6.42;84.23
79639;BME280;69114;49.108;8.280;2023-04-25T04:27:53;99856.81;;;6.43;84.30
79639;BME280;69114;49.108;8.280;2023-04-25T04:30:22;99853.44;;;6.46;83.83
79639;BME280;69114;49.108;8.280;2023-04-25T04:32:49;99848.78;;;6.46;84.96
79639;BME280;69114;49.108;8.280;2023-04-25T04:35:15;99849.66;;;6.41;84.25
79639;BME280;69114;49.108;8.280;2023-04-25T04:37:40;99856.06;;;6.37;84.85
79639;BME280;69114;49.108;8.280;2023-04-25T04:40:06;99849.41;;;6.38;84.09
79639;BME280;69114;49.108;8.280;2023-04-25T04:42:32;99860.34;;;6.48;84.47
79639;BME280;69114;49.108;8.280;2023-04-25T04:44:57;99860.69;;;6.65;83.64
79639;BME280;69114;49.108;8.280;2023-04-25T04:47:24;99852.44;;;6.60;84.16
79639;BME280;69114;49.108;8.280;2023-04-25T04:49:49;99860.59;;;6.52;84.10
79639;BME280;69114;49.108;8.280;2023-04-25T04:52:15;99858.63;;;6.52;84.00
79639;BME280;69114;49.108;8.280;2023-04-25T04:54:40;99862.00;;;6.49;84.75
79639;BME280;69114;49.108;8.280;2023-04-25T04:57:05;99866.41;;;6.50;84.45
79639;BME280;69114;49.108;8.280;2023-04-25T04:59:30;99870.91;;;6.46;84.56
79639;BME280;69114;49.108;8.280;2023-04-25T05:01:56;99877.13;;;6.57;84.45
79639;BME280;69114;49.108;8.280;2023-04-25T05:04:21;99877.78;;;6.67;84.46
79639;BME280;69114;49.108;8.280;2023-04-25T05:06:47;99875.44;;;6.80;83.17
79639;BME280;69114;49.108;8.280;2023-04-25T05:09:12;99873.38;;;6.66;83.32
79639;BME280;69114;49.108;8.280;2023-04-25T05:11:37;99873.91;;;6.68;84.54
79639;BME280;69114;49.108;8.280;2023-04-25T05:14:03;99875.63;;;6.64;84.01
79639;BME280;69114;49.108;8.280;2023-04-25T05:16:28;99877.56;;;6.64;84.46
79639;BME280;69114;49.108;8.280;2023-04-25T05:18:53;99873.91;;;6.68;83.82
79639;BME280;69114;49.108;8.280;2023-04-25T05:21:19;99880.72;;;6.76;84.20
79639;BME280;69114;49.108;8.280;2023-04-25T05:23:44;99881.09;;;6.70;83.48
79639;BME280;69114;49.108;8.280;2023-04-25T05:26:09;99879.44;;;6.68;83.88
79639;BME280;69114;49.108;8.280;2023-04-25T05:28:40;99864.50;;;6.70;84.01
79639;BME280;69114;49.108;8.280;2023-04-25T05:31:06;99885.44;;;6.76;84.23
79639;BME280;69114;49.108;8.280;2023-04-25T05:33:32;99875.19;;;6.76;84.24
79639;BME280;69114;49.108;8.280;2023-04-25T05:35:57;99887.56;;;6.84;84.80
79639;BME280;69114;49.108;8.280;2023-04-25T05:38:23;99886.34;;;6.90;85.73
79639;BME280;69114;49.108;8.280;2023-04-25T05:40:48;99886.59;;;6.93;85.37
79639;BME280;69114;49.108;8.280;2023-04-25T05:43:13;99893.03;;;6.89;84.87
79639;BME280;69114;49.108;8.280;2023-04-25T05:45:39;99892.47;;;6.87;85.09
79639;BME280;69114;49.108;8.280;2023-04-25T05:48:04;99889.47;;;7.02;85.38
79639;BME280;69114;49.108;8.280;2023-04-25T05:50:29;99902.81;;;7.00;84.91
79639;BME280;69114;49.108;8.280;2023-04-25T05:52:55;99899.72;;;7.02;84.74
79639;BME280;69114;49.108;8.280;2023-04-25T05:55:20;99894.91;;;7.12;83.05
79639;BME280;69114;49.108;8.280;2023-04-25T05:57:45;99895.47;;;7.09;83.50
79639;BME280;69114;49.108;8.280;2023-04-25T06:00:14;99902.34;;;7.12;84.19
79639;BME280;69114;49.108;8.280;2023-04-25T06:02:41;99905.66;;;7.33;82.26
79639;BME280;69114;49.108;8.280;2023-04-25T06:05:06;99916.06;;;7.22;84.09
79639;BME280;69114;49.108;8.280;2023-04-25T06:07:32;99908.03;;;7.21;86.08
79639;BME280;69114;49.108;8.280;2023-04-25T06:09:57;99918.53;;;7.24;85.07
79639;BME280;69114;49.108;8.280;2023-04-25T06:12:23;99917.56;;;7.14;84.60
79639;BME280;69114;49.108;8.280;2023-04-25T06:14:48;99920.56;;;7.18;85.63
79639;BME280;69114;49.108;8.280;2023-04-25T06:17:13;99919.03;;;7.26;84.27
79639;BME280;69114;49.108;8.280;2023-04-25T06:19:39;99920.16;;;7.25;84.26
79639;BME280;69114;49.108;8.280;2023-04-25T06:22:04;99926.47;;;7.11;85.14
79639;BME280;69114;49.108;8.280;2023-04-25T06:24:30;99933.66;;;7.12;84.80
79639;BME280;69114;49.108;8.280;2023-04-25T06:26:55;99928.03;;;7.17;86.53
79639;BME280;69114;49.108;8.280;2023-04-25T06:29:20;99919.59;;;7.28;85.24
79639;BME280;69114;49.108;8.280;2023-04-25T06:31:46;99929.91;;;7.41;84.87
79639;BME280;69114;49.108;8.280;2023-04-25T06:34:11;99917.47;;;7.38;83.93
79639;BME280;69114;49.108;8.280;2023-04-25T06:36:37;99928.94;;;7.32;84.36
79639;BME280;69114;49.108;8.280;2023-04-25T06:39:02;99926.91;;;7.18;86.01
79639;BME280;69114;49.108;8.280;2023-04-25T06:41:28;99928.41;;;7.30;86.06
79639;BME280;69114;49.108;8.280;2023-04-25T06:43:53;99928.72;;;7.28;85.98
79639;BME280;69114;49.108;8.280;2023-04-25T06:46:18;99923.31;;;7.37;86.78
79639;BME280;69114;49.108;8.280;2023-04-25T06:48:44;99925.34;;;7.50;85.90
79639;BME280;69114;49.108;8.280;2023-04-25T06:51:09;99927.72;;;7.57;84.21
79639;BME280;69114;49.108;8.280;2023-04-25T06:53:35;99929.50;;;7.48;84.20
79639;BME280;69114;49.108;8.280;2023-04-25T06:56:00;99939.88;;;7.42;83.54
79639;BME280;69114;49.108;8.280;2023-04-25T06:58:26;99935.59;;;7.31;83.07
79639;BME280;69114;49.108;8.280;2023-04-25T07:00:51;99946.16;;;7.29;84.37
79639;BME280;69114;49.108;8.280;2023-04-25T07:03:17;99937.03;;;7.28;83.65
79639;BME280;69114;49.108;8.280;2023-04-25T07:05:42;99941.59;;;7.38;86.13
79639;BME280;69114;49.108;8.280;2023-04-25T07:08:08;99939.78;;;7.47;85.18
79639;BME280;69114;49.108;8.280;2023-04-25T07:10:33;99945.56;;;7.51;83.13
79639;BME280;69114;49.108;8.280;2023-04-25T07:12:58;99960.47;;;7.36;85.78
79639;BME280;69114;49.108;8.280;2023-04-25T07:15:24;99950.56;;;7.30;84.75
79639;BME280;69114;49.108;8.280;2023-04-25T07:17:50;99946.91;;;7.34;86.45
79639;BME280;69114;49.108;8.280;2023-04-25T07:20:15;99952.75;;;7.33;86.53
79639;BME280;69114;49.108;8.280;2023-04-25T07:22:41;99951.03;;;7.37;87.98
79639;BME280;69114;49.108;8.280;2023-04-25T07:25:07;99951.28;;;7.54;86.33
79639;BME280;69114;49.108;8.280;2023-04-25T07:27:33;99957.06;;;7.58;84.98
79639;BME280;69114;49.108;8.280;2023-04-25T07:29:59;99945.00;;;7.67;85.84
79639;BME280;69114;49.108;8.280;2023-04-25T07:32:25;99953.38;;;7.62;86.58
79639;BME280;69114;49.108;8.280;2023-04-25T07:34:50;99953.22;;;7.73;84.70
79639;BME280;69114;49.108;8.280;2023-04-25T07:37:16;99965.84;;;7.65;84.53
79639;BME280;69114;49.108;8.280;2023-04-25T07:39:43;99958.50;;;7.55;85.12
79639;BME280;69114;49.108;8.280;2023-04-25T07:42:11;99958.44;;;7.60;86.03
79639;BME280;69114;49.108;8.280;2023-04-25T07:44:36;99962.97;;;7.70;85.79
79639;BME280;69114;49.108;8.280;2023-04-25T07:47:07;99962.59;;;7.58;88.19
79639;BME280;69114;49.108;8.280;2023-04-25T07:49:33;99970.19;;;7.52;88.96
79639;BME280;69114;49.108;8.280;2023-04-25T07:52:00;99974.75;;;7.62;88.33
79639;BME280;69114;49.108;8.280;2023-04-25T07:54:25;99977.38;;;7.53;88.29
79639;BME280;69114;49.108;8.280;2023-04-25T07:56:51;99974.28;;;7.55;87.76
79639;BME280;69114;49.108;8.280;2023-04-25T07:59:16;99983.53;;;7.50;88.16
79639;BME280;69114;49.108;8.280;2023-04-25T08:01:42;99985.84;;;7.62;89.10
79639;BME280;69114;49.108;8.280;2023-04-25T08:04:07;99994.28;;;7.70;89.34
79639;BME280;69114;49.108;8.280;2023-04-25T08:06:32;99990.38;;;7.72;87.59
79639;BME280;69114;49.108;8.280;2023-04-25T08:09:01;100006.28;;;7.66;87.12
79639;BME280;69114;49.108;8.280;2023-04-25T08:11:27;100004.72;;;7.60;88.34
79639;BME280;69114;49.108;8.280;2023-04-25T08:13:52;100005.53;;;7.60;88.50
79639;BME280;69114;49.108;8.280;2023-04-25T08:16:17;100016.41;;;7.57;87.95
79639;BME280;69114;49.108;8.280;2023-04-25T08:18:43;100018.50;;;7.46;88.43
79639;BME280;69114;49.108;8.280;2023-04-25T08:21:08;100020.50;;;7.40;89.58
79639;BME280;69114;49.108;8.280;2023-04-25T08:23:36;100027.16;;;7.39;89.71
79639;BME280;69114;49.108;8.280;2023-04-25T08:26:02;100026.97;;;7.36;90.41
79639;BME280;69114;49.108;8.280;2023-04-25T08:28:27;100034.72;;;7.34;89.18
79639;BME280;69114;49.108;8.280;2023-04-25T08:30:53;100034.00;;;7.47;88.56
79639;BME280;69114;49.108;8.280;2023-04-25T08:33:19;100048.84;;;7.56;88.21
79639;BME280;69114;49.108;8.280;2023-04-25T08:35:44;100041.94;;;7.54;87.63
79639;BME280;69114;49.108;8.280;2023-04-25T08:38:10;100045.91;;;7.66;88.36
79639;BME280;69114;49.108;8.280;2023-04-25T08:40:38;100048.69;;;7.66;88.36
79639;BME280;69114;49.108;8.280;2023-04-25T08:43:08;100049.81;;;7.65;87.60
79639;BME280;69114;49.108;8.280;2023-04-25T08:45:38;100055.44;;;7.60;88.46
79639;BME280;69114;49.108;8.280;2023-04-25T08:48:04;100055.44;;;7.60;87.61
79639;BME280;69114;49.108;8.280;2023-04-25T08:50:31;100058.13;;;7.65;89.96
79639;BME280;69114;49.108;8.280;2023-04-25T08:52:59;100067.34;;;7.61;89.48
79639;BME280;69114;49.108;8.280;2023-04-25T08:55:27;100069.44;;;7.50;88.07
79639;BME280;69114;49.108;8.280;2023-04-25T08:57:54;100077.56;;;7.23;87.09
79639;BME280;69114;49.108;8.280;2023-04-25T09:00:21;100085.03;;;7.22;91.95
79639;BME280;69114;49.108;8.280;2023-04-25T09:02:47;100087.69;;;7.08;86.29
79639;BME280;69114;49.108;8.280;2023-04-25T09:05:13;100091.09;;;7.00;89.24
79639;BME280;69114;49.108;8.280;2023-04-25T09:07:38;100098.34;;;6.96;89.08
79639;BME280;69114;49.108;8.280;2023-04-25T09:10:04;100101.38;;;7.00;89.16
79639;BME280;69114;49.108;8.280;2023-04-25T09:12:30;100101.38;;;7.00;89.79
79639;BME280;69114;49.108;8.280;2023-04-25T09:15:04;100107.09;;;7.08;90.76
79639;BME280;69114;49.108;8.280;2023-04-25T09:17:31;100122.00;;;7.12;88.09
79639;BME280;69114;49.108;8.280;2023-04-25T09:20:09;100123.03;;;7.16;89.08
79639;BME280;69114;49.108;8.280;2023-04-25T09:22:36;100123.03;;;7.16;88.41
79639;BME280;69114;49.108;8.280;2023-04-25T09:25:03;100125.41;;;7.04;86.08
79639;BME280;69114;49.108;8.280;2023-04-25T09:27:29;100134.84;;;7.03;89.24
79639;BME280;69114;49.108;8.280;2023-04-25T09:29:59;100129.47;;;7.12;87.97
79639;BME280;69114;49.108;8.280;2023-04-25T09:32:27;100129.88;;;7.24;87.48
79639;BME280;69114;49.108;8.280;2023-04-25T09:34:54;100148.97;;;7.26;87.93
79639;BME280;69114;49.108;8.280;2023-04-25T09:37:29;100149.16;;;7.34;88.88
79639;BME280;69114;49.108;8.280;2023-04-25T09:39:59;100152.16;;;7.38;87.48
79639;BME280;69114;49.108;8.280;2023-04-25T09:42:29;100158.78;;;7.42;87.76
79639;BME280;69114;49.108;8.280;2023-04-25T09:44:57;100163.81;;;7.35;87.69
79639;BME280;69114;49.108;8.280;2023-04-25T09:47:24;100161.00;;;7.40;85.25
79639;BME280;69114;49.108;8.280;2023-04-25T09:49:50;100161.00;;;7.40;85.92
79639;BME280;69114;49.108;8.280;2023-04-25T09:52:18;100159.22;;;7.49;87.14
79639;BME280;69114;49.108;8.280;2023-04-25T09:54:45;100166.06;;;7.57;85.89
79639;BME280;69114;49.108;8.280;2023-04-25T09:57:15;100173.00;;;7.54;85.05
79639;BME280;69114;49.108;8.280;2023-04-25T09:59:54;100172.31;;;7.67;85.64
79639;BME280;69114;49.108;8.280;2023-04-25T10:02:24;100181.41;;;7.92;84.75
79639;BME280;69114;49.108;8.280;2023-04-25T10:04:53;100171.91;;;7.98;81.96
79639;BME280;69114;49.108;8.280;2023-04-25T10:07:21;100175.19;;;8.00;83.24
79639;BME280;69114;49.108;8.280;2023-04-25T10:09:55;100185.22;;;7.96;85.15
79639;BME280;69114;49.108;8.280;2023-04-25T10:12:24;100180.00;;;8.13;85.63
79639;BME280;69114;49.108;8.280;2023-04-25T10:14:50;100182.69;;;8.18;83.71
79639;BME280;69114;49.108;8.280;2023-04-25T10:17:16;100179.09;;;8.18;84.29
79639;BME280;69114;49.108;8.280;2023-04-25T10:19:43;100184.50;;;8.09;83.31
79639;BME280;69114;49.108;8.280;2023-04-25T10:22:18;100201.88;;;7.96;83.59
79639;BME280;69114;49.108;8.280;2023-04-25T10:24:46;100194.03;;;8.03;82.47
79639;BME280;69114;49.108;8.280;2023-04-25T10:27:12;100195.16;;;7.78;82.77
79639;BME280;69114;49.108;8.280;2023-04-25T10:29:38;100198.75;;;7.60;84.20
79639;BME280;69114;49.108;8.280;2023-04-25T10:32:03;100206.94;;;7.46;83.58
79639;BME280;69114;49.108;8.280;2023-04-25T10:34:49;100208.16;;;7.35;85.05
79639;BME280;69114;49.108;8.280;2023-04-25T10:37:15;100208.78;;;7.32;86.45
79639;BME280;69114;49.108;8.280;2023-04-25T10:39:41;100216.84;;;7.28;86.49
79639;BME280;69114;49.108;8.280;2023-04-25T10:42:07;100213.81;;;7.25;82.72
79639;BME280;69114;49.108;8.280;2023-04-25T10:44:33;100213.47;;;7.02;83.55
79639;BME280;69114;49.108;8.280;2023-04-25T10:47:00;100214.91;;;7.00;83.79
79639;BME280;69114;49.108;8.280;2023-04-25T10:49:36;100224.28;;;7.04;83.76
79639;BME280;69114;49.108;8.280;2023-04-25T10:52:17;100223.56;;;7.22;85.14
79639;BME280;69114;49.108;8.280;2023-04-25T10:54:54;100224.25;;;7.33;82.93
79639;BME280;69114;49.108;8.280;2023-04-25T10:57:26;100226.22;;;7.56;83.42
79639;BME280;69114;49.108;8.280;2023-04-25T10:59:52;100226.91;;;7.67;81.61
79639;BME280;69114;49.108;8.280;2023-04-25T11:02:18;100223.03;;;7.68;79.78
79639;BME280;69114;49.108;8.280;2023-04-25T11:04:44;100223.69;;;7.84;80.15
79639;BME280;69114;49.108;8.280;2023-04-25T11:09:53;100227.63;;;7.78;79.69
79639;BME280;69114;49.108;8.280;2023-04-25T11:12:19;100232.00;;;7.60;82.81
79639;BME280;69114;49.108;8.280;2023-04-25T11:14:44;100231.66;;;7.42;83.57
79639;BME280;69114;49.108;8.280;2023-04-25T11:17:10;100238.63;;;7.35;84.44
79639;BME280;69114;49.108;8.280;2023-04-25T11:19:36;100241.28;;;7.45;83.36
79639;BME280;69114;49.108;8.280;2023-04-25T11:22:02;100238.50;;;7.50;85.88
79639;BME280;69114;49.108;8.280;2023-04-25T11:24:35;100236.59;;;7.46;87.14
79639;BME280;69114;49.108;8.280;2023-04-25T11:27:02;100235.97;;;7.25;84.05
79639;BME280;69114;49.108;8.280;2023-04-25T11:29:33;100243.75;;;7.23;83.59
79639;BME280;69114;49.108;8.280;2023-04-25T11:31:59;100245.41;;;7.24;84.61
79639;BME280;69114;49.108;8.280;2023-04-25T11:34:29;100246.81;;;7.21;82.85
79639;BME280;69114;49.108;8.280;2023-04-25T11:36:58;100241.59;;;7.43;82.89
79639;BME280;69114;49.108;8.280;2023-04-25T11:39:25;100250.22;;;7.42;86.25
79639;BME280;69114;49.108;8.280;2023-04-25T11:41:51;100253.00;;;7.66;86.16
79639;BME280;69114;49.108;8.280;2023-04-25T11:44:17;100246.34;;;7.67;84.76
79639;BME280;69114;49.108;8.280;2023-04-25T11:46:43;100246.97;;;7.59;86.79
79639;BME280;69114;49.108;8.280;2023-04-25T11:49:08;100254.41;;;7.63;86.86
79639;BME280;69114;49.108;8.280;2023-04-25T11:51:41;100246.00;;;7.92;84.95
79639;BME280;69114;49.108;8.280;2023-04-25T11:54:08;100249.78;;;7.78;84.03
79639;BME280;69114;49.108;8.280;2023-04-25T11:56:33;100263.97;;;7.76;85.28
79639;BME280;69114;49.108;8.280;2023-04-25T12:01:38;100261.84;;;7.68;82.76
79639;BME280;69114;49.108;8.280;2023-04-25T12:04:30;100266.22;;;7.98;81.66
79639;BME280;69114;49.108;8.280;2023-04-25T12:06:55;100266.38;;;8.26;82.99
79639;BME280;69114;49.108;8.280;2023-04-25T12:09:28;100268.50;;;8.34;82.42
79639;BME280;69114;49.108;8.280;2023-04-25T12:11:55;100269.03;;;8.17;83.64
79639;BME280;69114;49.108;8.280;2023-04-25T12:14:23;100264.03;;;8.38;80.58
79639;BME280;69114;49.108;8.280;2023-04-25T12:16:52;100260.28;;;8.66;78.87
79639;BME280;69114;49.108;8.280;2023-04-25T12:19:21;100251.63;;;8.87;79.35
79639;BME280;69114;49.108;8.280;2023-04-25T12:21:47;100249.56;;;9.25;81.09
79639;BME280;69114;49.108;8.280;2023-04-25T12:24:17;100239.72;;;9.33;81.98
79639;BME280;69114;49.108;8.280;2023-04-25T12:26:48;100239.91;;;10.19;77.19
79639;BME280;69114;49.108;8.280;2023-04-25T12:29:18;100240.44;;;11.16;68.94
79639;BME280;69114;49.108;8.280;2023-04-25T12:31:44;100252.22;;;11.13;75.74
79639;BME280;69114;49.108;8.280;2023-04-25T12:34:10;100245.00;;;10.89;76.58
79639;BME280;69114;49.108;8.280;2023-04-25T12:36:36;100250.28;;;10.77;72.19
79639;BME280;69114;49.108;8.280;2023-04-25T12:39:01;100257.56;;;10.87;64.93
79639;BME280;69114;49.108;8.280;2023-04-25T12:41:29;100245.06;;;10.39;72.17
79639;BME280;69114;49.108;8.280;2023-04-25T12:43:55;100253.34;;;10.31;76.28
79639;BME280;69114;49.108;8.280;2023-04-25T12:46:20;100259.28;;;10.38;70.68
79639;BME280;69114;49.108;8.280;2023-04-25T12:48:46;100259.06;;;10.20;69.30
79639;BME280;69114;49.108;8.280;2023-04-25T12:51:11;100254.94;;;10.45;69.06
79639;BME280;69114;49.108;8.280;2023-04-25T12:53:36;100256.34;;;10.57;70.81
79639;BME280;69114;49.108;8.280;2023-04-25T12:56:04;100253.84;;;11.14;67.23
79639;BME280;69114;49.108;8.280;2023-04-25T12:58:29;100259.59;;;10.72;66.93
79639;BME280;69114;49.108;8.280;2023-04-25T13:00:55;100268.97;;;10.54;69.97
79639;BME280;69114;49.108;8.280;2023-04-25T13:03:20;100269.81;;;10.41;71.15
79639;BME280;69114;49.108;8.280;2023-04-25T13:05:46;100267.31;;;10.39;72.42
79639;BME280;69114;49.108;8.280;2023-04-25T13:08:12;100270.28;;;10.93;70.30